sensor_id;sensor_type;location;lat;lon;timestamp;pressure;altitude;pressure_sealevel;temperature
20733;BMP180;10527;52.124;5.196;2022-10-18T00:01:01;102427.00;;;25.60
20733;BMP180;10527;52.124;5.196;2022-10-18T00:03:28;102419.00;;;25.60
20733;BMP180;10527;52.124;5.196;2022-10-18T00:05:55;102425.00;;;25.60
20733;BMP180;10527;52.124;5.196;2022-10-18T00:08:22;102426.00;;;25.60
20733;BMP180;10527;52.124;5.196;2022-10-18T00:10:49;102423.00;;;25.60
20733;BMP180;10527;52.124;5.196;2022-10-18T00:13:16;102422.00;;;25.60
20733;BMP180;10527;52.124;5.196;2022-10-18T00:15:57;102419.00;;;25.60
20733;BMP180;10527;52.124;5.196;2022-10-18T00:18:26;102419.00;;;25.60
20733;BMP180;10527;52.124;5.196;2022-10-18T00:21:06;102423.00;;;25.60
20733;BMP180;10527;52.124;5.196;2022-10-18T00:23:34;102422.00;;;25.50
20733;BMP180;10527;52.124;5.196;2022-10-18T00:26:12;102420.00;;;25.50
20733;BMP180;10527;52.124;5.196;2022-10-18T00:28:40;102416.00;;;25.50
20733;BMP180;10527;52.124;5.196;2022-10-18T00:33:45;102426.00;;;25.50
20733;BMP180;10527;52.124;5.196;2022-10-18T00:36:13;102422.00;;;25.40
20733;BMP180;10527;52.124;5.196;2022-10-18T00:38:41;102424.00;;;25.40
20733;BMP180;10527;52.124;5.196;2022-10-18T00:41:12;102425.00;;;25.40
20733;BMP180;10527;52.124;5.196;2022-10-18T00:46:48;102418.00;;;25.30
20733;BMP180;10527;52.124;5.196;2022-10-18T00:49:33;102427.00;;;25.30
20733;BMP180;10527;52.124;5.196;2022-10-18T00:52:09;102431.00;;;25.30
20733;BMP180;10527;52.124;5.196;2022-10-18T00:54:41;102435.00;;;25.30
20733;BMP180;10527;52.124;5.196;2022-10-18T00:57:09;102443.00;;;25.30
20733;BMP180;10527;52.124;5.196;2022-10-18T00:59:37;102432.00;;;25.20
20733;BMP180;10527;52.124;5.196;2022-10-18T01:02:06;102435.00;;;25.20
20733;BMP180;10527;52.124;5.196;2022-10-18T01:04:34;102437.00;;;25.20
20733;BMP180;10527;52.124;5.196;2022-10-18T01:10:22;102444.00;;;25.10
20733;BMP180;10527;52.124;5.196;2022-10-18T01:16:59;102451.00;;;25.10
20733;BMP180;10527;52.124;5.196;2022-10-18T01:22:43;102450.00;;;25.00
20733;BMP180;10527;52.124;5.196;2022-10-18T01:25:35;102446.00;;;25.00
20733;BMP180;10527;52.124;5.196;2022-10-18T01:28:32;102450.00;;;25.00
20733;BMP180;10527;52.124;5.196;2022-10-18T01:31:11;102462.00;;;24.90
20733;BMP180;10527;52.124;5.196;2022-10-18T01:33:56;102462.00;;;24.90
20733;BMP180;10527;52.124;5.196;2022-10-18T01:36:35;102461.00;;;24.90
20733;BMP180;10527;52.124;5.196;2022-10-18T01:39:14;102461.00;;;24.90
20733;BMP180;10527;52.124;5.196;2022-10-18T01:41:44;102462.00;;;24.90
20733;BMP180;10527;52.124;5.196;2022-10-18T01:44:20;102459.00;;;24.80
20733;BMP180;10527;52.124;5.196;2022-10-18T01:46:53;102446.00;;;24.80
20733;BMP180;10527;52.124;5.196;2022-10-18T01:49:24;102453.00;;;24.80
20733;BMP180;10527;52.124;5.196;2022-10-18T01:51:54;102445.00;;;24.80
20733;BMP180;10527;52.124;5.196;2022-10-18T01:54:33;102452.00;;;24.80
20733;BMP180;10527;52.124;5.196;2022-10-18T02:00:13;102454.00;;;24.70
20733;BMP180;10527;52.124;5.196;2022-10-18T02:03:05;102454.00;;;24.70
20733;BMP180;10527;52.124;5.196;2022-10-18T02:08:41;102459.00;;;24.60
20733;BMP180;10527;52.124;5.196;2022-10-18T02:11:14;102455.00;;;24.60
20733;BMP180;10527;52.124;5.196;2022-10-18T02:13:52;102458.00;;;24.60
20733;BMP180;10527;52.124;5.196;2022-10-18T02:16:29;102458.00;;;24.60
20733;BMP180;10527;52.124;5.196;2022-10-18T02:19:16;102459.00;;;24.50
20733;BMP180;10527;52.124;5.196;2022-10-18T02:21:47;102459.00;;;24.50
20733;BMP180;10527;52.124;5.196;2022-10-18T02:24:17;102466.00;;;24.50
20733;BMP180;10527;52.124;5.196;2022-10-18T02:26:44;102464.00;;;24.50
20733;BMP180;10527;52.124;5.196;2022-10-18T02:29:12;102467.00;;;24.50
20733;BMP180;10527;52.124;5.196;2022-10-18T02:31:45;102462.00;;;24.50
20733;BMP180;10527;52.124;5.196;2022-10-18T02:34:25;102461.00;;;24.50
20733;BMP180;10527;52.124;5.196;2022-10-18T02:37:15;102465.00;;;24.50
20733;BMP180;10527;52.124;5.196;2022-10-18T02:40:06;102460.00;;;24.40
20733;BMP180;10527;52.124;5.196;2022-10-18T02:42:56;102449.00;;;24.40
20733;BMP180;10527;52.124;5.196;2022-10-18T02:45:24;102457.00;;;24.40
20733;BMP180;10527;52.124;5.196;2022-10-18T02:47:51;102454.00;;;24.40
20733;BMP180;10527;52.124;5.196;2022-10-18T02:50:18;102454.00;;;24.40
20733;BMP180;10527;52.124;5.196;2022-10-18T02:52:45;102460.00;;;24.40
20733;BMP180;10527;52.124;5.196;2022-10-18T02:55:12;102472.00;;;24.30
20733;BMP180;10527;52.124;5.196;2022-10-18T02:57:38;102464.00;;;24.30
20733;BMP180;10527;52.124;5.196;2022-10-18T03:00:06;102466.00;;;24.30
20733;BMP180;10527;52.124;5.196;2022-10-18T03:02:34;102465.00;;;24.30
20733;BMP180;10527;52.124;5.196;2022-10-18T03:05:00;102463.00;;;24.30
20733;BMP180;10527;52.124;5.196;2022-10-18T03:07:27;102460.00;;;24.30
20733;BMP180;10527;52.124;5.196;2022-10-18T03:09:54;102449.00;;;24.20
20733;BMP180;10527;52.124;5.196;2022-10-18T03:12:21;102459.00;;;24.20
20733;BMP180;10527;52.124;5.196;2022-10-18T03:14:48;102459.00;;;24.20
20733;BMP180;10527;52.124;5.196;2022-10-18T03:17:17;102460.00;;;24.20
20733;BMP180;10527;52.124;5.196;2022-10-18T03:19:44;102461.00;;;24.20
20733;BMP180;10527;52.124;5.196;2022-10-18T03:22:13;102460.00;;;24.20
20733;BMP180;10527;52.124;5.196;2022-10-18T03:24:40;102464.00;;;24.10
20733;BMP180;10527;52.124;5.196;2022-10-18T03:27:07;102467.00;;;24.10
20733;BMP180;10527;52.124;5.196;2022-10-18T03:29:33;102461.00;;;24.10
20733;BMP180;10527;52.124;5.196;2022-10-18T03:32:00;102459.00;;;24.10
20733;BMP180;10527;52.124;5.196;2022-10-18T03:34:27;102463.00;;;24.10
20733;BMP180;10527;52.124;5.196;2022-10-18T03:36:54;102472.00;;;24.00
20733;BMP180;10527;52.124;5.196;2022-10-18T03:39:20;102474.00;;;24.00
20733;BMP180;10527;52.124;5.196;2022-10-18T03:41:47;102469.00;;;24.00
20733;BMP180;10527;52.124;5.196;2022-10-18T03:44:14;102470.00;;;24.00
20733;BMP180;10527;52.124;5.196;2022-10-18T03:46:40;102465.00;;;24.00
20733;BMP180;10527;52.124;5.196;2022-10-18T03:49:07;102471.00;;;24.00
20733;BMP180;10527;52.124;5.196;2022-10-18T03:51:34;102465.00;;;24.00
20733;BMP180;10527;52.124;5.196;2022-10-18T03:54:01;102468.00;;;24.00
20733;BMP180;10527;52.124;5.196;2022-10-18T03:56:27;102469.00;;;23.90
20733;BMP180;10527;52.124;5.196;2022-10-18T03:58:54;102471.00;;;23.90
20733;BMP180;10527;52.124;5.196;2022-10-18T04:01:22;102464.00;;;23.90
20733;BMP180;10527;52.124;5.196;2022-10-18T04:03:49;102465.00;;;23.80
20733;BMP180;10527;52.124;5.196;2022-10-18T04:06:16;102454.00;;;23.80
20733;BMP180;10527;52.124;5.196;2022-10-18T04:08:43;102457.00;;;23.80
20733;BMP180;10527;52.124;5.196;2022-10-18T04:11:09;102448.00;;;23.80
20733;BMP180;10527;52.124;5.196;2022-10-18T04:13:38;102452.00;;;23.70
20733;BMP180;10527;52.124;5.196;2022-10-18T04:16:05;102453.00;;;23.70
20733;BMP180;10527;52.124;5.196;2022-10-18T04:18:31;102459.00;;;23.70
20733;BMP180;10527;52.124;5.196;2022-10-18T04:20:58;102462.00;;;23.70
20733;BMP180;10527;52.124;5.196;2022-10-18T04:23:25;102459.00;;;23.70
20733;BMP180;10527;52.124;5.196;2022-10-18T04:25:52;102464.00;;;23.60
20733;BMP180;10527;52.124;5.196;2022-10-18T04:28:18;102467.00;;;23.60
20733;BMP180;10527;52.124;5.196;2022-10-18T04:30:51;102465.00;;;23.60
20733;BMP180;10527;52.124;5.196;2022-10-18T04:33:20;102452.00;;;23.60
20733;BMP180;10527;52.124;5.196;2022-10-18T04:35:51;102451.00;;;23.50
20733;BMP180;10527;52.124;5.196;2022-10-18T04:38:19;102454.00;;;23.50
20733;BMP180;10527;52.124;5.196;2022-10-18T04:40:46;102452.00;;;23.50
20733;BMP180;10527;52.124;5.196;2022-10-18T04:43:13;102458.00;;;23.40
20733;BMP180;10527;52.124;5.196;2022-10-18T04:45:40;102464.00;;;23.40
20733;BMP180;10527;52.124;5.196;2022-10-18T04:48:07;102463.00;;;23.40
20733;BMP180;10527;52.124;5.196;2022-10-18T04:50:34;102467.00;;;23.40
20733;BMP180;10527;52.124;5.196;2022-10-18T04:53:00;102462.00;;;23.40
20733;BMP180;10527;52.124;5.196;2022-10-18T04:55:27;102462.00;;;23.40
20733;BMP180;10527;52.124;5.196;2022-10-18T04:57:54;102465.00;;;23.40
20733;BMP180;10527;52.124;5.196;2022-10-18T05:00:21;102468.00;;;23.40
20733;BMP180;10527;52.124;5.196;2022-10-18T05:02:47;102472.00;;;23.40
20733;BMP180;10527;52.124;5.196;2022-10-18T05:05:14;102471.00;;;23.40
20733;BMP180;10527;52.124;5.196;2022-10-18T05:07:41;102475.00;;;23.30
20733;BMP180;10527;52.124;5.196;2022-10-18T05:10:11;102475.00;;;23.30
20733;BMP180;10527;52.124;5.196;2022-10-18T05:12:37;102478.00;;;23.30
20733;BMP180;10527;52.124;5.196;2022-10-18T05:15:04;102481.00;;;23.30
20733;BMP180;10527;52.124;5.196;2022-10-18T05:17:31;102479.00;;;23.30
20733;BMP180;10527;52.124;5.196;2022-10-18T05:19:58;102490.00;;;23.30
20733;BMP180;10527;52.124;5.196;2022-10-18T05:22:25;102492.00;;;23.30
20733;BMP180;10527;52.124;5.196;2022-10-18T05:24:51;102489.00;;;23.20
20733;BMP180;10527;52.124;5.196;2022-10-18T05:27:18;102488.00;;;23.30
20733;BMP180;10527;52.124;5.196;2022-10-18T05:29:45;102486.00;;;23.30
20733;BMP180;10527;52.124;5.196;2022-10-18T05:32:12;102498.00;;;23.30
20733;BMP180;10527;52.124;5.196;2022-10-18T05:34:39;102505.00;;;23.30
20733;BMP180;10527;52.124;5.196;2022-10-18T05:37:06;102500.00;;;23.20
20733;BMP180;10527;52.124;5.196;2022-10-18T05:39:32;102500.00;;;23.20
20733;BMP180;10527;52.124;5.196;2022-10-18T05:41:59;102500.00;;;23.20
20733;BMP180;10527;52.124;5.196;2022-10-18T05:44:26;102501.00;;;23.20
20733;BMP180;10527;52.124;5.196;2022-10-18T05:46:53;102499.00;;;23.20
20733;BMP180;10527;52.124;5.196;2022-10-18T05:49:19;102502.00;;;23.20
20733;BMP180;10527;52.124;5.196;2022-10-18T05:51:46;102508.00;;;23.20
20733;BMP180;10527;52.124;5.196;2022-10-18T05:54:13;102506.00;;;23.20
20733;BMP180;10527;52.124;5.196;2022-10-18T05:56:41;102514.00;;;23.20
20733;BMP180;10527;52.124;5.196;2022-10-18T05:59:08;102524.00;;;23.20
20733;BMP180;10527;52.124;5.196;2022-10-18T06:01:42;102527.00;;;23.20
20733;BMP180;10527;52.124;5.196;2022-10-18T06:04:09;102526.00;;;23.30
20733;BMP180;10527;52.124;5.196;2022-10-18T06:06:37;102543.00;;;23.30
20733;BMP180;10527;52.124;5.196;2022-10-18T06:09:06;102549.00;;;23.30
20733;BMP180;10527;52.124;5.196;2022-10-18T06:11:35;102541.00;;;23.20
20733;BMP180;10527;52.124;5.196;2022-10-18T06:14:02;102543.00;;;23.20
20733;BMP180;10527;52.124;5.196;2022-10-18T06:16:30;102539.00;;;23.20
20733;BMP180;10527;52.124;5.196;2022-10-18T06:18:58;102537.00;;;23.20
20733;BMP180;10527;52.124;5.196;2022-10-18T06:21:25;102551.00;;;23.20
20733;BMP180;10527;52.124;5.196;2022-10-18T06:23:56;102544.00;;;23.20
20733;BMP180;10527;52.124;5.196;2022-10-18T06:26:27;102552.00;;;23.30
20733;BMP180;10527;52.124;5.196;2022-10-18T06:28:54;102549.00;;;23.30
20733;BMP180;10527;52.124;5.196;2022-10-18T06:31:21;102547.00;;;23.30
20733;BMP180;10527;52.124;5.196;2022-10-18T06:33:49;102555.00;;;23.30
20733;BMP180;10527;52.124;5.196;2022-10-18T06:36:20;102574.00;;;23.20
20733;BMP180;10527;52.124;5.196;2022-10-18T06:38:56;102581.00;;;23.20
20733;BMP180;10527;52.124;5.196;2022-10-18T06:41:23;102576.00;;;23.10
20733;BMP180;10527;52.124;5.196;2022-10-18T06:43:53;102571.00;;;23.10
20733;BMP180;10527;52.124;5.196;2022-10-18T06:46:25;102571.00;;;23.00
20733;BMP180;10527;52.124;5.196;2022-10-18T06:48:54;102578.00;;;23.00
20733;BMP180;10527;52.124;5.196;2022-10-18T06:51:21;102579.00;;;23.00
20733;BMP180;10527;52.124;5.196;2022-10-18T06:53:53;102589.00;;;22.90
20733;BMP180;10527;52.124;5.196;2022-10-18T06:56:41;102593.00;;;22.90
20733;BMP180;10527;52.124;5.196;2022-10-18T06:59:13;102588.00;;;22.90
20733;BMP180;10527;52.124;5.196;2022-10-18T07:01:41;102591.00;;;22.90
20733;BMP180;10527;52.124;5.196;2022-10-18T07:04:12;102598.00;;;22.90
20733;BMP180;10527;52.124;5.196;2022-10-18T07:06:41;102597.00;;;22.80
20733;BMP180;10527;52.124;5.196;2022-10-18T07:09:07;102603.00;;;22.80
20733;BMP180;10527;52.124;5.196;2022-10-18T07:11:34;102605.00;;;22.70
20733;BMP180;10527;52.124;5.196;2022-10-18T07:14:17;102604.00;;;22.70
20733;BMP180;10527;52.124;5.196;2022-10-18T07:16:45;102617.00;;;22.60
20733;BMP180;10527;52.124;5.196;2022-10-18T07:19:13;102616.00;;;22.60
20733;BMP180;10527;52.124;5.196;2022-10-18T07:21:50;102616.00;;;22.60
20733;BMP180;10527;52.124;5.196;2022-10-18T07:24:31;102619.00;;;22.60
20733;BMP180;10527;52.124;5.196;2022-10-18T07:27:07;102617.00;;;22.60
20733;BMP180;10527;52.124;5.196;2022-10-18T07:29:41;102628.00;;;22.70
20733;BMP180;10527;52.124;5.196;2022-10-18T07:32:10;102620.00;;;22.70
20733;BMP180;10527;52.124;5.196;2022-10-18T07:34:45;102617.00;;;22.80
20733;BMP180;10527;52.124;5.196;2022-10-18T07:37:18;102619.00;;;22.90
20733;BMP180;10527;52.124;5.196;2022-10-18T07:39:44;102641.00;;;22.90
20733;BMP180;10527;52.124;5.196;2022-10-18T07:42:13;102654.00;;;23.00
20733;BMP180;10527;52.124;5.196;2022-10-18T07:44:41;102635.00;;;23.00
20733;BMP180;10527;52.124;5.196;2022-10-18T07:47:14;102643.00;;;23.00
20733;BMP180;10527;52.124;5.196;2022-10-18T07:49:41;102638.00;;;23.10
20733;BMP180;10527;52.124;5.196;2022-10-18T07:52:07;102648.00;;;23.10
20733;BMP180;10527;52.124;5.196;2022-10-18T07:54:34;102642.00;;;23.20
20733;BMP180;10527;52.124;5.196;2022-10-18T07:57:05;102650.00;;;23.20
20733;BMP180;10527;52.124;5.196;2022-10-18T07:59:33;102656.00;;;23.20
20733;BMP180;10527;52.124;5.196;2022-10-18T08:02:03;102661.00;;;23.30
20733;BMP180;10527;52.124;5.196;2022-10-18T08:04:34;102661.00;;;23.30
20733;BMP180;10527;52.124;5.196;2022-10-18T08:07:05;102657.00;;;23.30
20733;BMP180;10527;52.124;5.196;2022-10-18T08:09:32;102656.00;;;23.30
20733;BMP180;10527;52.124;5.196;2022-10-18T08:12:00;102663.00;;;23.30
20733;BMP180;10527;52.124;5.196;2022-10-18T08:14:29;102654.00;;;23.40
20733;BMP180;10527;52.124;5.196;2022-10-18T08:17:01;102647.00;;;23.40
20733;BMP180;10527;52.124;5.196;2022-10-18T08:19:28;102650.00;;;23.50
20733;BMP180;10527;52.124;5.196;2022-10-18T08:21:55;102664.00;;;23.50
20733;BMP180;10527;52.124;5.196;2022-10-18T08:24:21;102672.00;;;23.50
20733;BMP180;10527;52.124;5.196;2022-10-18T08:26:51;102666.00;;;23.60
20733;BMP180;10527;52.124;5.196;2022-10-18T08:29:19;102657.00;;;23.60
20733;BMP180;10527;52.124;5.196;2022-10-18T08:31:52;102669.00;;;23.60
20733;BMP180;10527;52.124;5.196;2022-10-18T08:34:19;102667.00;;;23.60
20733;BMP180;10527;52.124;5.196;2022-10-18T08:36:46;102663.00;;;23.60
20733;BMP180;10527;52.124;5.196;2022-10-18T08:39:14;102665.00;;;23.60
20733;BMP180;10527;52.124;5.196;2022-10-18T08:42:37;102661.00;;;23.70
20733;BMP180;10527;52.124;5.196;2022-10-18T08:45:07;102653.00;;;23.60
20733;BMP180;10527;52.124;5.196;2022-10-18T08:47:47;102671.00;;;23.70
20733;BMP180;10527;52.124;5.196;2022-10-18T08:50:24;102668.00;;;23.70
20733;BMP180;10527;52.124;5.196;2022-10-18T08:56:10;102678.00;;;24.10
20733;BMP180;10527;52.124;5.196;2022-10-18T08:58:46;102670.00;;;24.40
20733;BMP180;10527;52.124;5.196;2022-10-18T09:01:46;102668.00;;;25.00
20733;BMP180;10527;52.124;5.196;2022-10-18T09:04:38;102666.00;;;25.60
20733;BMP180;10527;52.124;5.196;2022-10-18T09:07:28;102689.00;;;26.30
20733;BMP180;10527;52.124;5.196;2022-10-18T09:10:38;102686.00;;;27.00
20733;BMP180;10527;52.124;5.196;2022-10-18T09:14:02;102679.00;;;27.80
20733;BMP180;10527;52.124;5.196;2022-10-18T09:20:10;102707.00;;;28.80
20733;BMP180;10527;52.124;5.196;2022-10-18T09:23:33;102703.00;;;29.30
20733;BMP180;10527;52.124;5.196;2022-10-18T09:26:23;102699.00;;;29.60
20733;BMP180;10527;52.124;5.196;2022-10-18T09:29:29;102702.00;;;29.90
20733;BMP180;10527;52.124;5.196;2022-10-18T09:32:33;102707.00;;;30.20
20733;BMP180;10527;52.124;5.196;2022-10-18T09:38:48;102706.00;;;30.50
20733;BMP180;10527;52.124;5.196;2022-10-18T09:41:41;102703.00;;;30.70
20733;BMP180;10527;52.124;5.196;2022-10-18T09:44:22;102721.00;;;30.80
20733;BMP180;10527;52.124;5.196;2022-10-18T09:47:23;102712.00;;;30.90
20733;BMP180;10527;52.124;5.196;2022-10-18T09:50:03;102705.00;;;30.80
20733;BMP180;10527;52.124;5.196;2022-10-18T09:56:03;102709.00;;;30.80
20733;BMP180;10527;52.124;5.196;2022-10-18T09:58:55;102718.00;;;30.70
20733;BMP180;10527;52.124;5.196;2022-10-18T10:01:31;102731.00;;;30.70
20733;BMP180;10527;52.124;5.196;2022-10-18T10:03:59;102732.00;;;30.60
20733;BMP180;10527;52.124;5.196;2022-10-18T10:06:52;102729.00;;;30.50
20733;BMP180;10527;52.124;5.196;2022-10-18T10:09:36;102738.00;;;30.40
20733;BMP180;10527;52.124;5.196;2022-10-18T10:15:28;102742.00;;;30.10
20733;BMP180;10527;52.124;5.196;2022-10-18T10:18:28;102740.00;;;29.90
20733;BMP180;10527;52.124;5.196;2022-10-18T10:21:06;102744.00;;;29.80
20733;BMP180;10527;52.124;5.196;2022-10-18T10:23:48;102741.00;;;29.60
20733;BMP180;10527;52.124;5.196;2022-10-18T10:26:41;102738.00;;;29.40
20733;BMP180;10527;52.124;5.196;2022-10-18T10:29:50;102744.00;;;29.20
20733;BMP180;10527;52.124;5.196;2022-10-18T10:32:21;102750.00;;;29.00
20733;BMP180;10527;52.124;5.196;2022-10-18T10:34:51;102745.00;;;28.90
20733;BMP180;10527;52.124;5.196;2022-10-18T10:37:32;102740.00;;;28.80
20733;BMP180;10527;52.124;5.196;2022-10-18T10:43:04;102752.00;;;28.50
20733;BMP180;10527;52.124;5.196;2022-10-18T10:46:12;102752.00;;;28.30
20733;BMP180;10527;52.124;5.196;2022-10-18T10:48:58;102753.00;;;28.20
20733;BMP180;10527;52.124;5.196;2022-10-18T10:51:54;102748.00;;;28.00
20733;BMP180;10527;52.124;5.196;2022-10-18T10:54:36;102746.00;;;27.90
20733;BMP180;10527;52.124;5.196;2022-10-18T10:57:20;102765.00;;;27.80
20733;BMP180;10527;52.124;5.196;2022-10-18T10:59:52;102759.00;;;27.70
20733;BMP180;10527;52.124;5.196;2022-10-18T11:05:29;102749.00;;;27.60
20733;BMP180;10527;52.124;5.196;2022-10-18T11:07:59;102739.00;;;27.60
20733;BMP180;10527;52.124;5.196;2022-10-18T11:10:41;102757.00;;;27.60
20733;BMP180;10527;52.124;5.196;2022-10-18T11:13:47;102748.00;;;27.50
20733;BMP180;10527;52.124;5.196;2022-10-18T11:16:50;102750.00;;;27.50
20733;BMP180;10527;52.124;5.196;2022-10-18T11:22:59;102755.00;;;27.40
20733;BMP180;10527;52.124;5.196;2022-10-18T11:25:47;102749.00;;;27.40
20733;BMP180;10527;52.124;5.196;2022-10-18T11:37:52;102751.00;;;27.40
20733;BMP180;10527;52.124;5.196;2022-10-18T11:41:43;102754.00;;;27.40
20733;BMP180;10527;52.124;5.196;2022-10-18T11:53:15;102753.00;;;27.50
20733;BMP180;10527;52.124;5.196;2022-10-18T11:56:12;102764.00;;;27.40
20733;BMP180;10527;52.124;5.196;2022-10-18T12:05:04;102752.00;;;27.50
20733;BMP180;10527;52.124;5.196;2022-10-18T12:08:01;102750.00;;;27.50
20733;BMP180;10527;52.124;5.196;2022-10-18T12:10:34;102757.00;;;27.50
20733;BMP180;10527;52.124;5.196;2022-10-18T12:13:34;102754.00;;;27.50
20733;BMP180;10527;52.124;5.196;2022-10-18T12:16:07;102749.00;;;27.50
20733;BMP180;10527;52.124;5.196;2022-10-18T12:19:06;102747.00;;;27.50
20733;BMP180;10527;52.124;5.196;2022-10-18T12:21:40;102752.00;;;27.50
20733;BMP180;10527;52.124;5.196;2022-10-18T12:24:22;102742.00;;;27.50
20733;BMP180;10527;52.124;5.196;2022-10-18T12:27:00;102745.00;;;27.60
20733;BMP180;10527;52.124;5.196;2022-10-18T12:29:57;102743.00;;;27.70
20733;BMP180;10527;52.124;5.196;2022-10-18T12:32:33;102745.00;;;27.70
20733;BMP180;10527;52.124;5.196;2022-10-18T12:35:13;102742.00;;;27.70
20733;BMP180;10527;52.124;5.196;2022-10-18T12:38:17;102740.00;;;27.70
20733;BMP180;10527;52.124;5.196;2022-10-18T12:40:51;102744.00;;;27.70
20733;BMP180;10527;52.124;5.196;2022-10-18T12:43:26;102744.00;;;27.70
20733;BMP180;10527;52.124;5.196;2022-10-18T12:46:07;102736.00;;;27.80
20733;BMP180;10527;52.124;5.196;2022-10-18T12:49:03;102743.00;;;27.80
20733;BMP180;10527;52.124;5.196;2022-10-18T12:51:32;102738.00;;;27.80
20733;BMP180;10527;52.124;5.196;2022-10-18T12:56:37;102737.00;;;27.80
20733;BMP180;10527;52.124;5.196;2022-10-18T13:07:38;102727.00;;;27.90
20733;BMP180;10527;52.124;5.196;2022-10-18T13:13:21;102707.00;;;28.00
20733;BMP180;10527;52.124;5.196;2022-10-18T13:16:45;102707.00;;;28.00
20733;BMP180;10527;52.124;5.196;2022-10-18T13:19:34;102711.00;;;27.90
20733;BMP180;10527;52.124;5.196;2022-10-18T13:22:42;102717.00;;;28.00
20733;BMP180;10527;52.124;5.196;2022-10-18T13:25:39;102715.00;;;28.00
20733;BMP180;10527;52.124;5.196;2022-10-18T13:28:29;102715.00;;;28.00
20733;BMP180;10527;52.124;5.196;2022-10-18T13:31:22;102715.00;;;28.00
20733;BMP180;10527;52.124;5.196;2022-10-18T13:34:26;102712.00;;;28.00
20733;BMP180;10527;52.124;5.196;2022-10-18T13:37:21;102724.00;;;28.00
20733;BMP180;10527;52.124;5.196;2022-10-18T13:40:23;102726.00;;;28.00
20733;BMP180;10527;52.124;5.196;2022-10-18T13:42:54;102718.00;;;28.00
20733;BMP180;10527;52.124;5.196;2022-10-18T14:03:23;102726.00;;;28.20
20733;BMP180;10527;52.124;5.196;2022-10-18T14:06:37;102724.00;;;28.20
20733;BMP180;10527;52.124;5.196;2022-10-18T14:09:15;102727.00;;;28.20
20733;BMP180;10527;52.124;5.196;2022-10-18T14:12:37;102731.00;;;28.20
20733;BMP180;10527;52.124;5.196;2022-10-18T14:15:27;102728.00;;;28.20
20733;BMP180;10527;52.124;5.196;2022-10-18T14:18:23;102735.00;;;28.20
20733;BMP180;10527;52.124;5.196;2022-10-18T14:21:10;102750.00;;;28.20
20733;BMP180;10527;52.124;5.196;2022-10-18T14:23:43;102741.00;;;28.20
20733;BMP180;10527;52.124;5.196;2022-10-18T14:26:18;102727.00;;;28.20
20733;BMP180;10527;52.124;5.196;2022-10-18T14:29:03;102736.00;;;28.20
20733;BMP180;10527;52.124;5.196;2022-10-18T14:31:32;102753.00;;;28.10
20733;BMP180;10527;52.124;5.196;2022-10-18T14:33:59;102737.00;;;28.10
20733;BMP180;10527;52.124;5.196;2022-10-18T14:36:35;102750.00;;;28.10
20733;BMP180;10527;52.124;5.196;2022-10-18T14:39:06;102753.00;;;28.20
20733;BMP180;10527;52.124;5.196;2022-10-18T14:41:54;102739.00;;;28.20
20733;BMP180;10527;52.124;5.196;2022-10-18T14:44:31;102732.00;;;28.20
20733;BMP180;10527;52.124;5.196;2022-10-18T14:47:02;102741.00;;;28.20
20733;BMP180;10527;52.124;5.196;2022-10-18T14:49:29;102745.00;;;28.20
20733;BMP180;10527;52.124;5.196;2022-10-18T14:51:59;102751.00;;;28.30
20733;BMP180;10527;52.124;5.196;2022-10-18T14:54:35;102743.00;;;28.20
20733;BMP180;10527;52.124;5.196;2022-10-18T14:57:04;102743.00;;;28.20
20733;BMP180;10527;52.124;5.196;2022-10-18T14:59:42;102756.00;;;28.20
20733;BMP180;10527;52.124;5.196;2022-10-18T15:02:18;102751.00;;;28.20
20733;BMP180;10527;52.124;5.196;2022-10-18T15:04:54;102748.00;;;28.20
20733;BMP180;10527;52.124;5.196;2022-10-18T15:07:22;102749.00;;;28.20
20733;BMP180;10527;52.124;5.196;2022-10-18T15:09:50;102751.00;;;28.20
20733;BMP180;10527;52.124;5.196;2022-10-18T15:12:18;102747.00;;;28.20
20733;BMP180;10527;52.124;5.196;2022-10-18T15:14:46;102752.00;;;28.20
20733;BMP180;10527;52.124;5.196;2022-10-18T15:17:27;102748.00;;;28.20
20733;BMP180;10527;52.124;5.196;2022-10-18T15:20:16;102734.00;;;28.20
20733;BMP180;10527;52.124;5.196;2022-10-18T15:22:44;102737.00;;;28.10
20733;BMP180;10527;52.124;5.196;2022-10-18T15:25:33;102741.00;;;28.10
20733;BMP180;10527;52.124;5.196;2022-10-18T15:28:04;102725.00;;;28.00
20733;BMP180;10527;52.124;5.196;2022-10-18T15:30:39;102744.00;;;27.90
20733;BMP180;10527;52.124;5.196;2022-10-18T15:33:21;102746.00;;;27.90
20733;BMP180;10527;52.124;5.196;2022-10-18T15:35:51;102754.00;;;27.80
20733;BMP180;10527;52.124;5.196;2022-10-18T15:38:30;102749.00;;;27.80
20733;BMP180;10527;52.124;5.196;2022-10-18T15:41:35;102751.00;;;27.60
20733;BMP180;10527;52.124;5.196;2022-10-18T15:44:26;102751.00;;;27.50
20733;BMP180;10527;52.124;5.196;2022-10-18T15:52:40;102753.00;;;27.40
20733;BMP180;10527;52.124;5.196;2022-10-18T15:58:15;102762.00;;;27.30
20733;BMP180;10527;52.124;5.196;2022-10-18T16:00:58;102759.00;;;27.20
20733;BMP180;10527;52.124;5.196;2022-10-18T16:03:26;102759.00;;;27.20
20733;BMP180;10527;52.124;5.196;2022-10-18T16:06:02;102759.00;;;27.10
20733;BMP180;10527;52.124;5.196;2022-10-18T16:08:30;102755.00;;;27.10
20733;BMP180;10527;52.124;5.196;2022-10-18T16:10:59;102753.00;;;27.10
20733;BMP180;10527;52.124;5.196;2022-10-18T16:13:26;102763.00;;;27.10
20733;BMP180;10527;52.124;5.196;2022-10-18T16:15:54;102753.00;;;27.10
20733;BMP180;10527;52.124;5.196;2022-10-18T16:18:23;102774.00;;;27.20
20733;BMP180;10527;52.124;5.196;2022-10-18T16:20:51;102768.00;;;27.20
20733;BMP180;10527;52.124;5.196;2022-10-18T16:23:25;102764.00;;;27.20
20733;BMP180;10527;52.124;5.196;2022-10-18T16:25:54;102765.00;;;27.20
20733;BMP180;10527;52.124;5.196;2022-10-18T16:28:24;102759.00;;;27.20
20733;BMP180;10527;52.124;5.196;2022-10-18T16:31:00;102752.00;;;27.20
20733;BMP180;10527;52.124;5.196;2022-10-18T16:33:29;102763.00;;;27.20
20733;BMP180;10527;52.124;5.196;2022-10-18T16:35:56;102766.00;;;27.20
20733;BMP180;10527;52.124;5.196;2022-10-18T16:38:34;102766.00;;;27.20